sensor_id;sensor_type;location;lat;lon;timestamp;temperature;humidity
6841;DHT22;3458;53.678;14.080;2022-07-29T00:00:13;17.20;90.30
6841;DHT22;3458;53.678;14.080;2022-07-29T00:02:38;17.20;90.50
6841;DHT22;3458;53.678;14.080;2022-07-29T00:05:04;17.10;90.60
6841;DHT22;3458;53.678;14.080;2022-07-29T00:07:30;17.00;90.70
6841;DHT22;3458;53.678;14.080;2022-07-29T00:09:56;16.90;90.90
6841;DHT22;3458;53.678;14.080;2022-07-29T00:12:24;16.90;91.10
6841;DHT22;3458;53.678;14.080;2022-07-29T00:14:50;16.90;91.10
6841;DHT22;3458;53.678;14.080;2022-07-29T00:17:15;16.90;91.30
6841;DHT22;3458;53.678;14.080;2022-07-29T00:19:41;16.90;91.30
6841;DHT22;3458;53.678;14.080;2022-07-29T00:22:06;16.90;91.60
6841;DHT22;3458;53.678;14.080;2022-07-29T00:24:32;16.90;91.30
6841;DHT22;3458;53.678;14.080;2022-07-29T00:26:57;16.80;91.30
6841;DHT22;3458;53.678;14.080;2022-07-29T00:29:23;16.80;91.40
6841;DHT22;3458;53.678;14.080;2022-07-29T00:31:49;16.80;91.50
6841;DHT22;3458;53.678;14.080;2022-07-29T00:34:15;16.80;91.60
6841;DHT22;3458;53.678;14.080;2022-07-29T00:36:59;16.80;91.60
6841;DHT22;3458;53.678;14.080;2022-07-29T00:39:25;16.70;91.50
6841;DHT22;3458;53.678;14.080;2022-07-29T00:41:50;16.70;91.70
6841;DHT22;3458;53.678;14.080;2022-07-29T00:44:16;16.60;91.70
6841;DHT22;3458;53.678;14.080;2022-07-29T00:46:41;16.60;91.90
6841;DHT22;3458;53.678;14.080;2022-07-29T00:49:07;16.70;91.90
6841;DHT22;3458;53.678;14.080;2022-07-29T00:51:37;16.60;92.10
6841;DHT22;3458;53.678;14.080;2022-07-29T00:54:04;16.60;92.20
6841;DHT22;3458;53.678;14.080;2022-07-29T00:56:33;16.60;92.20
6841;DHT22;3458;53.678;14.080;2022-07-29T00:58:59;16.50;92.10
6841;DHT22;3458;53.678;14.080;2022-07-29T01:01:26;16.50;92.30
6841;DHT22;3458;53.678;14.080;2022-07-29T01:03:52;16.40;92.50
6841;DHT22;3458;53.678;14.080;2022-07-29T01:06:18;16.40;92.60
6841;DHT22;3458;53.678;14.080;2022-07-29T01:08:45;16.40;92.80
6841;DHT22;3458;53.678;14.080;2022-07-29T01:11:12;16.40;92.90
6841;DHT22;3458;53.678;14.080;2022-07-29T01:13:38;16.40;93.00
6841;DHT22;3458;53.678;14.080;2022-07-29T01:16:08;16.40;92.90
6841;DHT22;3458;53.678;14.080;2022-07-29T01:18:40;16.40;93.00
6841;DHT22;3458;53.678;14.080;2022-07-29T01:26:54;16.30;93.30
6841;DHT22;3458;53.678;14.080;2022-07-29T01:29:37;16.30;93.30
6841;DHT22;3458;53.678;14.080;2022-07-29T01:32:13;16.30;93.40
6841;DHT22;3458;53.678;14.080;2022-07-29T01:34:50;16.20;93.50
6841;DHT22;3458;53.678;14.080;2022-07-29T01:37:28;16.20;93.50
6841;DHT22;3458;53.678;14.080;2022-07-29T01:39:56;16.20;93.60
6841;DHT22;3458;53.678;14.080;2022-07-29T01:42:38;16.20;93.70
6841;DHT22;3458;53.678;14.080;2022-07-29T01:45:24;16.10;93.80
6841;DHT22;3458;53.678;14.080;2022-07-29T01:48:02;16.10;94.00
6841;DHT22;3458;53.678;14.080;2022-07-29T01:50:34;16.10;94.20
6841;DHT22;3458;53.678;14.080;2022-07-29T01:53:04;16.10;94.30
6841;DHT22;3458;53.678;14.080;2022-07-29T01:55:34;16.00;94.30
6841;DHT22;3458;53.678;14.080;2022-07-29T01:58:01;16.00;94.50
6841;DHT22;3458;53.678;14.080;2022-07-29T02:00:29;16.00;94.60
6841;DHT22;3458;53.678;14.080;2022-07-29T02:03:03;16.00;94.60
6841;DHT22;3458;53.678;14.080;2022-07-29T02:05:30;16.00;94.60
6841;DHT22;3458;53.678;14.080;2022-07-29T02:07:57;16.00;94.60
6841;DHT22;3458;53.678;14.080;2022-07-29T02:10:26;15.90;94.90
6841;DHT22;3458;53.678;14.080;2022-07-29T02:12:54;15.90;95.00
6841;DHT22;3458;53.678;14.080;2022-07-29T02:15:23;15.80;95.20
6841;DHT22;3458;53.678;14.080;2022-07-29T02:17:53;15.80;95.40
6841;DHT22;3458;53.678;14.080;2022-07-29T02:20:20;15.80;95.50
6841;DHT22;3458;53.678;14.080;2022-07-29T02:22:48;15.80;95.60
6841;DHT22;3458;53.678;14.080;2022-07-29T02:25:16;15.80;95.50
6841;DHT22;3458;53.678;14.080;2022-07-29T02:27:43;15.80;95.40
6841;DHT22;3458;53.678;14.080;2022-07-29T02:30:10;15.80;95.50
6841;DHT22;3458;53.678;14.080;2022-07-29T02:32:40;15.70;95.50
6841;DHT22;3458;53.678;14.080;2022-07-29T02:35:08;15.70;95.50
6841;DHT22;3458;53.678;14.080;2022-07-29T02:37:36;15.70;95.50
6841;DHT22;3458;53.678;14.080;2022-07-29T02:40:03;15.60;95.60
6841;DHT22;3458;53.678;14.080;2022-07-29T02:42:29;15.60;95.80
6841;DHT22;3458;53.678;14.080;2022-07-29T02:44:56;15.60;95.90
6841;DHT22;3458;53.678;14.080;2022-07-29T02:47:40;15.60;96.10
6841;DHT22;3458;53.678;14.080;2022-07-29T02:50:13;15.60;96.40
6841;DHT22;3458;53.678;14.080;2022-07-29T02:52:59;15.60;96.70
6841;DHT22;3458;53.678;14.080;2022-07-29T02:55:39;15.60;96.90
6841;DHT22;3458;53.678;14.080;2022-07-29T02:58:15;15.60;97.30
6841;DHT22;3458;53.678;14.080;2022-07-29T03:00:46;15.60;97.50
6841;DHT22;3458;53.678;14.080;2022-07-29T03:03:16;15.50;97.90
6841;DHT22;3458;53.678;14.080;2022-07-29T03:05:43;15.60;98.30
6841;DHT22;3458;53.678;14.080;2022-07-29T03:08:10;15.60;98.30
6841;DHT22;3458;53.678;14.080;2022-07-29T03:10:39;15.60;98.40
6841;DHT22;3458;53.678;14.080;2022-07-29T03:13:05;15.50;98.50
6841;DHT22;3458;53.678;14.080;2022-07-29T03:15:32;15.50;98.70
6841;DHT22;3458;53.678;14.080;2022-07-29T03:17:58;15.50;98.90
6841;DHT22;3458;53.678;14.080;2022-07-29T03:20:24;15.50;99.00
6841;DHT22;3458;53.678;14.080;2022-07-29T03:22:50;15.50;99.10
6841;DHT22;3458;53.678;14.080;2022-07-29T03:25:17;15.50;99.40
6841;DHT22;3458;53.678;14.080;2022-07-29T03:27:44;15.50;99.60
6841;DHT22;3458;53.678;14.080;2022-07-29T03:30:10;15.50;99.70
6841;DHT22;3458;53.678;14.080;2022-07-29T03:32:37;15.50;99.90
6841;DHT22;3458;53.678;14.080;2022-07-29T03:35:03;15.50;99.90
6841;DHT22;3458;53.678;14.080;2022-07-29T03:37:29;15.50;99.90
6841;DHT22;3458;53.678;14.080;2022-07-29T03:39:57;15.60;99.90
6841;DHT22;3458;53.678;14.080;2022-07-29T03:42:25;15.60;99.90
6841;DHT22;3458;53.678;14.080;2022-07-29T03:44:52;15.60;99.90
6841;DHT22;3458;53.678;14.080;2022-07-29T03:47:23;15.50;99.90
6841;DHT22;3458;53.678;14.080;2022-07-29T03:49:52;15.50;99.90
6841;DHT22;3458;53.678;14.080;2022-07-29T03:52:18;15.50;99.90
6841;DHT22;3458;53.678;14.080;2022-07-29T03:54:44;15.60;99.90
6841;DHT22;3458;53.678;14.080;2022-07-29T03:57:11;15.60;99.90
6841;DHT22;3458;53.678;14.080;2022-07-29T03:59:37;15.60;99.90
6841;DHT22;3458;53.678;14.080;2022-07-29T04:02:04;15.70;99.90
6841;DHT22;3458;53.678;14.080;2022-07-29T04:04:33;15.70;99.90
6841;DHT22;3458;53.678;14.080;2022-07-29T04:07:00;15.70;99.90
6841;DHT22;3458;53.678;14.080;2022-07-29T04:09:25;15.70;99.90
6841;DHT22;3458;53.678;14.080;2022-07-29T04:11:51;15.70;99.90
6841;DHT22;3458;53.678;14.080;2022-07-29T04:14:16;15.70;99.90
6841;DHT22;3458;53.678;14.080;2022-07-29T04:16:42;15.70;99.90
6841;DHT22;3458;53.678;14.080;2022-07-29T04:19:08;15.70;99.90
6841;DHT22;3458;53.678;14.080;2022-07-29T04:21:40;15.70;99.90
6841;DHT22;3458;53.678;14.080;2022-07-29T04:24:06;15.70;99.90
6841;DHT22;3458;53.678;14.080;2022-07-29T04:26:32;15.80;99.90
6841;DHT22;3458;53.678;14.080;2022-07-29T04:28:57;15.80;99.90
6841;DHT22;3458;53.678;14.080;2022-07-29T04:31:23;15.80;99.90
6841;DHT22;3458;53.678;14.080;2022-07-29T04:33:48;15.90;99.90
6841;DHT22;3458;53.678;14.080;2022-07-29T04:36:14;15.80;99.90
6841;DHT22;3458;53.678;14.080;2022-07-29T04:38:40;15.80;99.90
6841;DHT22;3458;53.678;14.080;2022-07-29T04:41:06;15.90;99.90
6841;DHT22;3458;53.678;14.080;2022-07-29T04:43:33;15.90;99.90
6841;DHT22;3458;53.678;14.080;2022-07-29T04:45:58;15.90;99.90
6841;DHT22;3458;53.678;14.080;2022-07-29T04:48:24;15.90;99.90
6841;DHT22;3458;53.678;14.080;2022-07-29T04:50:50;15.90;99.90
6841;DHT22;3458;53.678;14.080;2022-07-29T04:53:16;16.00;99.90
6841;DHT22;3458;53.678;14.080;2022-07-29T04:55:41;15.90;99.90
6841;DHT22;3458;53.678;14.080;2022-07-29T04:58:07;16.00;99.90
6841;DHT22;3458;53.678;14.080;2022-07-29T05:00:33;16.00;99.90
6841;DHT22;3458;53.678;14.080;2022-07-29T05:02:58;16.10;99.90
6841;DHT22;3458;53.678;14.080;2022-07-29T05:05:23;16.20;99.90
6841;DHT22;3458;53.678;14.080;2022-07-29T05:07:49;16.20;99.90
6841;DHT22;3458;53.678;14.080;2022-07-29T05:10:15;16.20;99.90
6841;DHT22;3458;53.678;14.080;2022-07-29T05:12:40;16.30;99.90
6841;DHT22;3458;53.678;14.080;2022-07-29T05:15:06;16.40;99.90
6841;DHT22;3458;53.678;14.080;2022-07-29T05:17:31;16.40;99.90
6841;DHT22;3458;53.678;14.080;2022-07-29T05:19:57;16.50;99.90
6841;DHT22;3458;53.678;14.080;2022-07-29T05:22:22;16.50;99.90
6841;DHT22;3458;53.678;14.080;2022-07-29T05:24:48;16.50;99.90
6841;DHT22;3458;53.678;14.080;2022-07-29T05:27:14;16.60;99.90
6841;DHT22;3458;53.678;14.080;2022-07-29T05:29:39;16.60;99.90
6841;DHT22;3458;53.678;14.080;2022-07-29T05:32:06;16.60;99.90
6841;DHT22;3458;53.678;14.080;2022-07-29T05:34:31;16.60;99.90
6841;DHT22;3458;53.678;14.080;2022-07-29T05:36:57;16.60;99.90
6841;DHT22;3458;53.678;14.080;2022-07-29T05:39:23;16.70;99.90
6841;DHT22;3458;53.678;14.080;2022-07-29T05:41:49;16.70;99.90
6841;DHT22;3458;53.678;14.080;2022-07-29T05:44:14;16.70;99.90
6841;DHT22;3458;53.678;14.080;2022-07-29T05:46:40;16.70;99.90
6841;DHT22;3458;53.678;14.080;2022-07-29T05:49:06;16.70;99.90
6841;DHT22;3458;53.678;14.080;2022-07-29T05:51:33;16.70;99.90
6841;DHT22;3458;53.678;14.080;2022-07-29T05:53:59;16.80;99.90
6841;DHT22;3458;53.678;14.080;2022-07-29T05:56:25;16.80;99.90
6841;DHT22;3458;53.678;14.080;2022-07-29T05:58:51;16.90;99.90
6841;DHT22;3458;53.678;14.080;2022-07-29T06:01:16;16.90;99.90
6841;DHT22;3458;53.678;14.080;2022-07-29T06:03:42;16.90;99.90
6841;DHT22;3458;53.678;14.080;2022-07-29T06:06:08;16.90;99.90
6841;DHT22;3458;53.678;14.080;2022-07-29T06:08:34;16.90;99.90
6841;DHT22;3458;53.678;14.080;2022-07-29T06:11:00;16.90;99.90
6841;DHT22;3458;53.678;14.080;2022-07-29T06:13:26;17.00;99.90
6841;DHT22;3458;53.678;14.080;2022-07-29T06:15:52;17.00;99.90
6841;DHT22;3458;53.678;14.080;2022-07-29T06:18:17;17.00;99.90
6841;DHT22;3458;53.678;14.080;2022-07-29T06:20:43;17.10;99.90
6841;DHT22;3458;53.678;14.080;2022-07-29T06:23:09;17.10;99.90
6841;DHT22;3458;53.678;14.080;2022-07-29T06:25:35;17.20;99.90
6841;DHT22;3458;53.678;14.080;2022-07-29T06:28:02;17.20;99.90
6841;DHT22;3458;53.678;14.080;2022-07-29T06:30:28;17.30;99.90
6841;DHT22;3458;53.678;14.080;2022-07-29T06:32:54;17.30;99.90
6841;DHT22;3458;53.678;14.080;2022-07-29T06:35:20;17.40;99.90
6841;DHT22;3458;53.678;14.080;2022-07-29T06:37:46;17.40;99.90
6841;DHT22;3458;53.678;14.080;2022-07-29T06:40:11;17.50;99.90
6841;DHT22;3458;53.678;14.080;2022-07-29T06:42:55;17.50;99.90
6841;DHT22;3458;53.678;14.080;2022-07-29T06:45:21;17.60;99.90
6841;DHT22;3458;53.678;14.080;2022-07-29T06:47:46;17.60;99.90
6841;DHT22;3458;53.678;14.080;2022-07-29T06:50:12;17.70;99.90
6841;DHT22;3458;53.678;14.080;2022-07-29T06:52:39;17.80;99.90
6841;DHT22;3458;53.678;14.080;2022-07-29T06:55:05;17.80;99.90
6841;DHT22;3458;53.678;14.080;2022-07-29T06:57:30;17.90;99.90
6841;DHT22;3458;53.678;14.080;2022-07-29T06:59:56;18.00;99.90
6841;DHT22;3458;53.678;14.080;2022-07-29T07:02:22;18.00;99.90
6841;DHT22;3458;53.678;14.080;2022-07-29T07:04:48;18.10;99.90
6841;DHT22;3458;53.678;14.080;2022-07-29T07:07:13;18.20;99.90
6841;DHT22;3458;53.678;14.080;2022-07-29T07:09:39;18.20;99.90
6841;DHT22;3458;53.678;14.080;2022-07-29T07:12:04;18.20;99.90
6841;DHT22;3458;53.678;14.080;2022-07-29T07:14:30;18.20;99.90
6841;DHT22;3458;53.678;14.080;2022-07-29T07:16:55;18.30;99.90
6841;DHT22;3458;53.678;14.080;2022-07-29T07:19:21;18.30;99.90
6841;DHT22;3458;53.678;14.080;2022-07-29T07:21:46;18.40;99.90
6841;DHT22;3458;53.678;14.080;2022-07-29T07:24:12;18.40;99.90
6841;DHT22;3458;53.678;14.080;2022-07-29T07:26:38;18.50;99.90
6841;DHT22;3458;53.678;14.080;2022-07-29T07:29:05;18.50;99.90
6841;DHT22;3458;53.678;14.080;2022-07-29T07:31:30;18.50;99.90
6841;DHT22;3458;53.678;14.080;2022-07-29T07:33:56;18.60;99.90
6841;DHT22;3458;53.678;14.080;2022-07-29T07:36:22;18.70;99.90
6841;DHT22;3458;53.678;14.080;2022-07-29T07:38:48;18.70;99.90
6841;DHT22;3458;53.678;14.080;2022-07-29T07:41:13;18.70;99.90
6841;DHT22;3458;53.678;14.080;2022-07-29T07:43:39;18.80;99.90
6841;DHT22;3458;53.678;14.080;2022-07-29T07:46:04;18.80;99.90
6841;DHT22;3458;53.678;14.080;2022-07-29T07:48:33;18.90;99.90
6841;DHT22;3458;53.678;14.080;2022-07-29T07:51:00;18.90;99.90
6841;DHT22;3458;53.678;14.080;2022-07-29T07:53:26;19.00;99.90
6841;DHT22;3458;53.678;14.080;2022-07-29T07:55:52;19.20;99.90
6841;DHT22;3458;53.678;14.080;2022-07-29T07:58:17;19.30;99.90
6841;DHT22;3458;53.678;14.080;2022-07-29T08:00:43;19.30;99.90
6841;DHT22;3458;53.678;14.080;2022-07-29T08:03:08;19.30;99.90
6841;DHT22;3458;53.678;14.080;2022-07-29T08:05:37;19.30;99.90
6841;DHT22;3458;53.678;14.080;2022-07-29T08:08:03;19.40;99.90
6841;DHT22;3458;53.678;14.080;2022-07-29T08:10:29;19.50;99.90
6841;DHT22;3458;53.678;14.080;2022-07-29T08:13:13;19.50;99.90
6841;DHT22;3458;53.678;14.080;2022-07-29T08:15:39;19.60;99.90
6841;DHT22;3458;53.678;14.080;2022-07-29T08:18:04;19.70;99.90
6841;DHT22;3458;53.678;14.080;2022-07-29T08:20:30;19.70;99.90
6841;DHT22;3458;53.678;14.080;2022-07-29T08:22:58;19.80;99.90
6841;DHT22;3458;53.678;14.080;2022-07-29T08:25:24;19.80;99.90
6841;DHT22;3458;53.678;14.080;2022-07-29T08:27:49;19.90;99.90
6841;DHT22;3458;53.678;14.080;2022-07-29T08:30:15;19.90;99.90
6841;DHT22;3458;53.678;14.080;2022-07-29T08:32:41;20.00;99.90
6841;DHT22;3458;53.678;14.080;2022-07-29T08:35:06;20.00;99.90
6841;DHT22;3458;53.678;14.080;2022-07-29T08:37:32;20.00;99.90
6841;DHT22;3458;53.678;14.080;2022-07-29T08:39:58;20.00;99.90
6841;DHT22;3458;53.678;14.080;2022-07-29T08:42:23;20.00;99.90
6841;DHT22;3458;53.678;14.080;2022-07-29T08:44:49;20.00;99.90
6841;DHT22;3458;53.678;14.080;2022-07-29T08:47:16;20.10;99.90
6841;DHT22;3458;53.678;14.080;2022-07-29T08:49:42;20.10;99.90
6841;DHT22;3458;53.678;14.080;2022-07-29T08:52:10;20.10;99.90
6841;DHT22;3458;53.678;14.080;2022-07-29T08:54:37;20.10;99.90
6841;DHT22;3458;53.678;14.080;2022-07-29T08:57:04;20.10;99.90
6841;DHT22;3458;53.678;14.080;2022-07-29T08:59:30;20.10;99.90
6841;DHT22;3458;53.678;14.080;2022-07-29T09:01:58;20.10;99.90
6841;DHT22;3458;53.678;14.080;2022-07-29T09:04:28;20.10;99.90
6841;DHT22;3458;53.678;14.080;2022-07-29T09:06:57;20.10;99.90
6841;DHT22;3458;53.678;14.080;2022-07-29T09:09:23;20.10;99.90
6841;DHT22;3458;53.678;14.080;2022-07-29T09:11:49;20.10;99.90
6841;DHT22;3458;53.678;14.080;2022-07-29T09:14:15;20.00;99.90
6841;DHT22;3458;53.678;14.080;2022-07-29T09:16:55;20.10;99.90
6841;DHT22;3458;53.678;14.080;2022-07-29T09:19:22;20.10;99.90
6841;DHT22;3458;53.678;14.080;2022-07-29T09:21:48;20.20;99.90
6841;DHT22;3458;53.678;14.080;2022-07-29T09:24:38;20.30;99.90
6841;DHT22;3458;53.678;14.080;2022-07-29T09:29:42;20.40;99.90
6841;DHT22;3458;53.678;14.080;2022-07-29T09:32:09;20.40;99.90
6841;DHT22;3458;53.678;14.080;2022-07-29T09:34:35;20.50;99.90
6841;DHT22;3458;53.678;14.080;2022-07-29T09:37:00;20.50;99.90
6841;DHT22;3458;53.678;14.080;2022-07-29T09:41:55;20.60;99.90
6841;DHT22;3458;53.678;14.080;2022-07-29T09:44:21;20.70;99.90
6841;DHT22;3458;53.678;14.080;2022-07-29T09:46:59;20.90;99.90
6841;DHT22;3458;53.678;14.080;2022-07-29T09:49:31;21.00;99.90
6841;DHT22;3458;53.678;14.080;2022-07-29T09:52:08;21.00;99.90
6841;DHT22;3458;53.678;14.080;2022-07-29T09:54:34;21.00;99.90
6841;DHT22;3458;53.678;14.080;2022-07-29T09:57:05;21.10;99.90
6841;DHT22;3458;53.678;14.080;2022-07-29T09:59:31;21.20;99.90
6841;DHT22;3458;53.678;14.080;2022-07-29T10:01:56;21.30;99.90
6841;DHT22;3458;53.678;14.080;2022-07-29T10:04:22;21.30;99.90
6841;DHT22;3458;53.678;14.080;2022-07-29T10:06:59;21.40;99.90
6841;DHT22;3458;53.678;14.080;2022-07-29T10:09:25;21.50;99.90
6841;DHT22;3458;53.678;14.080;2022-07-29T10:12:07;21.60;99.90
6841;DHT22;3458;53.678;14.080;2022-07-29T10:14:33;21.70;99.90
6841;DHT22;3458;53.678;14.080;2022-07-29T10:16:59;21.80;99.90
6841;DHT22;3458;53.678;14.080;2022-07-29T10:19:26;22.00;99.90
6841;DHT22;3458;53.678;14.080;2022-07-29T10:21:53;22.10;99.90
6841;DHT22;3458;53.678;14.080;2022-07-29T10:24:18;22.30;99.90
6841;DHT22;3458;53.678;14.080;2022-07-29T10:26:45;22.30;99.90
6841;DHT22;3458;53.678;14.080;2022-07-29T10:29:12;22.30;99.90
6841;DHT22;3458;53.678;14.080;2022-07-29T10:32:11;22.40;99.90
6841;DHT22;3458;53.678;14.080;2022-07-29T10:35:01;22.60;99.90
6841;DHT22;3458;53.678;14.080;2022-07-29T10:40:31;22.70;99.90
6841;DHT22;3458;53.678;14.080;2022-07-29T10:43:23;22.70;99.90
6841;DHT22;3458;53.678;14.080;2022-07-29T10:45:55;22.70;99.90
6841;DHT22;3458;53.678;14.080;2022-07-29T10:48:22;22.80;99.90
6841;DHT22;3458;53.678;14.080;2022-07-29T10:50:54;23.00;99.90
6841;DHT22;3458;53.678;14.080;2022-07-29T10:53:24;23.10;99.90
6841;DHT22;3458;53.678;14.080;2022-07-29T10:56:26;23.20;99.90
6841;DHT22;3458;53.678;14.080;2022-07-29T11:01:46;23.40;99.90
6841;DHT22;3458;53.678;14.080;2022-07-29T11:04:13;23.50;99.90
6841;DHT22;3458;53.678;14.080;2022-07-29T11:09:29;23.90;99.90
6841;DHT22;3458;53.678;14.080;2022-07-29T11:11:56;24.00;99.90
6841;DHT22;3458;53.678;14.080;2022-07-29T11:17:20;24.20;99.90
6841;DHT22;3458;53.678;14.080;2022-07-29T11:19:45;24.30;99.90
6841;DHT22;3458;53.678;14.080;2022-07-29T11:22:34;24.40;99.90
6841;DHT22;3458;53.678;14.080;2022-07-29T11:25:17;24.40;99.90
6841;DHT22;3458;53.678;14.080;2022-07-29T11:27:44;24.40;99.90
6841;DHT22;3458;53.678;14.080;2022-07-29T11:30:10;24.40;99.90
6841;DHT22;3458;53.678;14.080;2022-07-29T11:32:39;24.50;99.90
6841;DHT22;3458;53.678;14.080;2022-07-29T11:35:14;24.60;99.90
6841;DHT22;3458;53.678;14.080;2022-07-29T11:37:40;24.80;99.90
6841;DHT22;3458;53.678;14.080;2022-07-29T11:45:01;25.10;99.90
6841;DHT22;3458;53.678;14.080;2022-07-29T11:47:30;25.10;99.90
6841;DHT22;3458;53.678;14.080;2022-07-29T11:49:56;25.20;99.90
6841;DHT22;3458;53.678;14.080;2022-07-29T11:52:23;25.30;99.90
6841;DHT22;3458;53.678;14.080;2022-07-29T11:54:50;25.40;99.90
6841;DHT22;3458;53.678;14.080;2022-07-29T11:57:17;25.30;99.90
6841;DHT22;3458;53.678;14.080;2022-07-29T11:59:45;25.20;99.90
6841;DHT22;3458;53.678;14.080;2022-07-29T12:02:12;25.10;99.60
6841;DHT22;3458;53.678;14.080;2022-07-29T12:04:56;25.30;99.90
6841;DHT22;3458;53.678;14.080;2022-07-29T12:07:29;25.80;99.90
6841;DHT22;3458;53.678;14.080;2022-07-29T12:09:56;26.30;99.70
6841;DHT22;3458;53.678;14.080;2022-07-29T12:12:22;26.50;98.30
6841;DHT22;3458;53.678;14.080;2022-07-29T12:14:48;26.60;97.90
6841;DHT22;3458;53.678;14.080;2022-07-29T12:19:53;26.40;95.30
6841;DHT22;3458;53.678;14.080;2022-07-29T12:22:30;26.80;95.00
6841;DHT22;3458;53.678;14.080;2022-07-29T12:25:01;27.00;93.60
6841;DHT22;3458;53.678;14.080;2022-07-29T12:27:28;27.20;93.60
6841;DHT22;3458;53.678;14.080;2022-07-29T12:30:05;27.60;91.50
6841;DHT22;3458;53.678;14.080;2022-07-29T12:32:34;28.20;90.60
6841;DHT22;3458;53.678;14.080;2022-07-29T12:35:03;29.30;87.60
6841;DHT22;3458;53.678;14.080;2022-07-29T12:37:29;30.30;80.40
6841;DHT22;3458;53.678;14.080;2022-07-29T12:39:55;30.80;75.90
6841;DHT22;3458;53.678;14.080;2022-07-29T12:42:20;30.30;71.50
6841;DHT22;3458;53.678;14.080;2022-07-29T12:44:48;29.30;70.50
6841;DHT22;3458;53.678;14.080;2022-07-29T12:47:14;28.40;72.10
6841;DHT22;3458;53.678;14.080;2022-07-29T12:49:40;27.60;72.50
6841;DHT22;3458;53.678;14.080;2022-07-29T12:52:29;26.90;71.90
6841;DHT22;3458;53.678;14.080;2022-07-29T12:54:55;26.60;74.80
6841;DHT22;3458;53.678;14.080;2022-07-29T12:57:21;26.70;78.50
6841;DHT22;3458;53.678;14.080;2022-07-29T13:00:10;27.40;78.80
6841;DHT22;3458;53.678;14.080;2022-07-29T13:02:41;28.60;77.90
6841;DHT22;3458;53.678;14.080;2022-07-29T13:05:08;29.50;73.20
6841;DHT22;3458;53.678;14.080;2022-07-29T13:07:38;30.00;68.80
6841;DHT22;3458;53.678;14.080;2022-07-29T13:13:12;31.20;65.00
6841;DHT22;3458;53.678;14.080;2022-07-29T13:15:41;31.40;62.80
6841;DHT22;3458;53.678;14.080;2022-07-29T13:18:27;31.20;60.80
6841;DHT22;3458;53.678;14.080;2022-07-29T13:20:53;31.30;57.50
6841;DHT22;3458;53.678;14.080;2022-07-29T13:23:19;31.60;55.70
6841;DHT22;3458;53.678;14.080;2022-07-29T13:25:44;31.70;53.50
6841;DHT22;3458;53.678;14.080;2022-07-29T13:28:10;31.50;53.00
6841;DHT22;3458;53.678;14.080;2022-07-29T13:30:37;31.10;51.70
6841;DHT22;3458;53.678;14.080;2022-07-29T13:33:03;30.10;49.80
6841;DHT22;3458;53.678;14.080;2022-07-29T13:35:28;29.40;51.80
6841;DHT22;3458;53.678;14.080;2022-07-29T13:37:55;28.80;52.50
6841;DHT22;3458;53.678;14.080;2022-07-29T13:40:20;28.50;53.40
6841;DHT22;3458;53.678;14.080;2022-07-29T13:42:46;28.20;53.50
6841;DHT22;3458;53.678;14.080;2022-07-29T13:45:11;28.50;54.30
6841;DHT22;3458;53.678;14.080;2022-07-29T13:47:37;29.90;54.60
6841;DHT22;3458;53.678;14.080;2022-07-29T13:50:04;31.40;53.00
6841;DHT22;3458;53.678;14.080;2022-07-29T13:52:30;32.70;50.70
6841;DHT22;3458;53.678;14.080;2022-07-29T13:54:56;33.70;47.40
6841;DHT22;3458;53.678;14.080;2022-07-29T13:57:22;34.50;45.70
6841;DHT22;3458;53.678;14.080;2022-07-29T13:59:47;35.10;43.40
6841;DHT22;3458;53.678;14.080;2022-07-29T14:02:13;35.50;41.90
6841;DHT22;3458;53.678;14.080;2022-07-29T14:04:38;35.90;41.30
6841;DHT22;3458;53.678;14.080;2022-07-29T14:07:04;36.30;39.60
6841;DHT22;3458;53.678;14.080;2022-07-29T14:09:30;35.30;38.80
6841;DHT22;3458;53.678;14.080;2022-07-29T14:11:56;35.30;40.30
6841;DHT22;3458;53.678;14.080;2022-07-29T14:14:21;35.70;39.20
6841;DHT22;3458;53.678;14.080;2022-07-29T14:16:47;35.10;38.10
6841;DHT22;3458;53.678;14.080;2022-07-29T14:19:12;34.50;39.30
6841;DHT22;3458;53.678;14.080;2022-07-29T14:21:38;33.90;39.30
6841;DHT22;3458;53.678;14.080;2022-07-29T14:24:04;33.70;39.40
6841;DHT22;3458;53.678;14.080;2022-07-29T14:26:30;34.40;39.50
6841;DHT22;3458;53.678;14.080;2022-07-29T14:28:56;35.50;37.90
6841;DHT22;3458;53.678;14.080;2022-07-29T14:31:21;36.30;37.40
6841;DHT22;3458;53.678;14.080;2022-07-29T14:33:47;37.10;35.70
6841;DHT22;3458;53.678;14.080;2022-07-29T14:36:13;38.10;33.80
6841;DHT22;3458;53.678;14.080;2022-07-29T14:38:38;38.10;32.20
6841;DHT22;3458;53.678;14.080;2022-07-29T14:41:06;37.60;32.40
6841;DHT22;3458;53.678;14.080;2022-07-29T14:43:32;36.80;33.30
6841;DHT22;3458;53.678;14.080;2022-07-29T14:45:57;35.70;33.70
6841;DHT22;3458;53.678;14.080;2022-07-29T14:48:23;34.90;34.70
6841;DHT22;3458;53.678;14.080;2022-07-29T14:50:48;33.90;35.60
6841;DHT22;3458;53.678;14.080;2022-07-29T14:53:14;32.80;36.80
6841;DHT22;3458;53.678;14.080;2022-07-29T14:55:40;32.10;38.50
6841;DHT22;3458;53.678;14.080;2022-07-29T14:58:06;32.00;39.70
6841;DHT22;3458;53.678;14.080;2022-07-29T15:00:32;33.10;39.20
6841;DHT22;3458;53.678;14.080;2022-07-29T15:02:59;33.60;37.90
6841;DHT22;3458;53.678;14.080;2022-07-29T15:05:25;33.10;37.50
6841;DHT22;3458;53.678;14.080;2022-07-29T15:07:51;32.50;37.90
6841;DHT22;3458;53.678;14.080;2022-07-29T15:10:16;32.90;38.30
6841;DHT22;3458;53.678;14.080;2022-07-29T15:12:42;34.40;37.20
6841;DHT22;3458;53.678;14.080;2022-07-29T15:15:08;36.40;35.50
6841;DHT22;3458;53.678;14.080;2022-07-29T15:17:34;36.90;33.70
6841;DHT22;3458;53.678;14.080;2022-07-29T15:19:59;36.70;33.30
6841;DHT22;3458;53.678;14.080;2022-07-29T15:22:25;37.70;32.10
6841;DHT22;3458;53.678;14.080;2022-07-29T15:24:50;38.60;31.10
6841;DHT22;3458;53.678;14.080;2022-07-29T15:27:16;39.60;30.00
6841;DHT22;3458;53.678;14.080;2022-07-29T15:29:42;39.40;29.20
6841;DHT22;3458;53.678;14.080;2022-07-29T15:32:08;38.90;29.60
6841;DHT22;3458;53.678;14.080;2022-07-29T15:34:35;37.70;30.00
6841;DHT22;3458;53.678;14.080;2022-07-29T15:37:01;36.10;31.20
6841;DHT22;3458;53.678;14.080;2022-07-29T15:39:26;35.50;32.70
6841;DHT22;3458;53.678;14.080;2022-07-29T15:41:52;37.10;32.00
6841;DHT22;3458;53.678;14.080;2022-07-29T15:44:18;38.70;31.00
6841;DHT22;3458;53.678;14.080;2022-07-29T15:46:44;40.00;30.00
6841;DHT22;3458;53.678;14.080;2022-07-29T15:49:32;40.70;28.80
6841;DHT22;3458;53.678;14.080;2022-07-29T15:52:02;40.20;28.00
6841;DHT22;3458;53.678;14.080;2022-07-29T15:54:29;37.70;29.20
6841;DHT22;3458;53.678;14.080;2022-07-29T15:56:55;35.40;31.20
6841;DHT22;3458;53.678;14.080;2022-07-29T15:59:21;33.70;33.60
6841;DHT22;3458;53.678;14.080;2022-07-29T16:01:47;32.60;35.40
6841;DHT22;3458;53.678;14.080;2022-07-29T16:04:12;32.50;36.40
6841;DHT22;3458;53.678;14.080;2022-07-29T16:06:38;32.40;36.30
6841;DHT22;3458;53.678;14.080;2022-07-29T16:09:03;32.00;36.70
6841;DHT22;3458;53.678;14.080;2022-07-29T16:11:29;31.30;37.70
6841;DHT22;3458;53.678;14.080;2022-07-29T16:13:54;30.60;38.90
6841;DHT22;3458;53.678;14.080;2022-07-29T16:16:20;29.90;40.30
6841;DHT22;3458;53.678;14.080;2022-07-29T16:18:46;29.30;41.30
6841;DHT22;3458;53.678;14.080;2022-07-29T16:21:12;29.00;42.40